Latest Weather Observations for Cape Flattery

IDQ60801

Issued at 11:32 am EST Sunday 31 July 2016 (issued every 30 minutes, with the page automatically refreshed every 10 minutes)

About weather observations | Map of weather stations | Latest weather observations for QLD | Other Formats
Station Details ID: 031213 Name: CAPE FLATTERY Lat: -14.97 Lon: 145.31 Height: 18.5 m
Data from the previous 72 hours. | See also: Recent months at Cape Flattery
Date/Time
EST
Temp
°C
App
Temp
°C
Dew
Point
°C
Rel
Hum
%
Delta-T
°C
Wind Press
QNH
hPa
Press
MSL
hPa
Rain since
9am
mm
Dir  Spd
km/h
Gust
km/h
Spd
kts
Gust
kts
31/11:30am 26.3 23.4 20.8 71 3.6 SE 37 48 20 26 1014.4 1014.3 0.0
31/11:00am 26.9 23.9 20.7 69 4.1 SE 37 50 20 27 1014.7 1014.6 0.0
31/10:30am 26.0 23.5 20.1 70 3.8 SE 33 44 18 24 1015.0 1014.9 0.0
31/10:00am 26.3 24.1 20.8 71 3.6 SE 33 46 18 25 1015.1 1015.0 0.0
31/09:30am 26.5 24.1 21.0 72 3.6 SE 35 46 19 25 1015.0 1014.9 0.0
31/09:00am 25.7 24.1 20.7 74 3.3 SE 30 43 16 23 1014.9 1014.8 0.2
31/08:30am 25.3 23.2 21.0 77 2.8 SE 33 43 18 23 1014.5 1014.4 0.2
31/08:00am 24.7 22.3 20.0 75 3.0 SE 32 39 17 21 1014.2 1014.1 0.2
31/07:30am 24.3 22.0 20.2 78 2.7 SE 32 41 17 22 1014.0 1013.9 0.2
31/07:00am 24.2 22.5 20.5 80 2.4 SE 30 39 16 21 1013.7 1013.6 0.2
31/06:30am 24.3 22.2 20.6 80 2.4 SE 32 39 17 21 1013.2 1013.1 0.2
31/06:00am 24.0 22.8 20.9 83 2.0 SE 28 41 15 22 1013.1 1013.0 0.2
31/05:30am 24.0 22.6 21.1 84 1.9 SE 30 39 16 21 1012.9 1012.8 0.2
31/05:00am 24.2 22.7 20.9 82 2.2 SE 30 39 16 21 1012.8 1012.7 0.2
31/04:30am 24.0 22.7 20.7 82 2.2 SE 28 39 15 21 1012.7 1012.6 0.2
31/04:00am 24.1 23.0 21.0 83 2.0 SSE 28 41 15 22 1012.7 1012.6 0.2
31/03:30am 23.5 22.5 21.2 87 1.5 SSE 28 35 15 19 1012.8 1012.7 0.2
31/03:00am 24.0 22.4 20.7 82 2.2 SSE 30 41 16 22 1012.9 1012.8 0.2
31/02:30am 24.2 22.0 20.7 81 2.3 SE 33 44 18 24 1013.1 1013.0 0.2
31/02:00am 24.0 21.6 20.3 80 2.4 SE 33 44 18 24 1013.2 1013.1 0.2
31/01:30am 24.1 21.8 20.6 81 2.3 SE 33 44 18 24 1013.5 1013.4 0.2
31/01:00am 24.0 21.9 20.5 81 2.3 SE 32 44 17 24 1013.9 1013.8 0.2
31/12:30am 24.1 21.9 20.4 80 2.4 SE 32 44 17 24 1014.1 1014.0 0.2
31/12:00am 24.3 21.6 20.4 79 2.5 SE 35 46 19 25 1014.3 1014.2 0.2
 
Date/Time
EST
Temp
°C
App
Temp
°C
Dew
Point
°C
Rel
Hum
%
Delta-T
°C
Wind Press
QNH
hPa
Press
MSL
hPa
Rain since
9am
mm
Dir  Spd
km/h
Gust
km/h
Spd
kts
Gust
kts
30/11:30pm 24.2 21.9 20.5 80 2.4 SE 33 44 18 24 1014.4 1014.3 0.2
30/11:00pm 24.4 22.1 20.5 79 2.5 SE 33 46 18 25 1014.7 1014.6 0.2
30/10:30pm 24.3 22.1 20.4 79 2.5 SE 32 46 17 25 1014.9 1014.8 0.2
30/10:00pm 24.5 22.4 20.6 79 2.5 SE 32 46 17 25 1014.9 1014.8 0.2
30/09:32pm 24.3 22.2 20.6 80 2.4 SE 32 50 17 27 1014.9 1014.8 0.2
30/09:30pm 24.2 22.2 20.7 81 2.3 SE 32 43 17 23 1014.9 1014.8 0.2
30/09:11pm 24.3 22.0 20.6 80 2.4 SE 33 52 18 28 1015.0 1014.9 0.2
30/09:00pm 24.4 21.3 20.5 79 2.5 SE 37 48 20 26 1014.9 1014.8 0.2
30/08:30pm 24.4 22.1 20.5 79 2.5 SE 33 43 18 23 1014.7 1014.6 0.2
30/08:00pm 24.6 21.9 20.5 78 2.7 SE 35 44 19 24 1014.2 1014.1 0.2
30/07:30pm 24.4 21.8 20.7 80 2.4 SE 35 48 19 26 1013.9 1013.8 0.2
30/07:00pm 24.1 22.1 21.2 84 1.9 SSE 33 44 18 24 1013.6 1013.5 0.2
30/06:30pm 24.1 21.9 21.4 85 1.8 SSE 35 48 19 26 1013.5 1013.4 0.2
30/06:00pm 24.1 21.5 20.6 81 2.3 SSE 35 46 19 25 1013.2 1013.1 0.2
30/05:30pm 24.2 21.4 21.1 83 2.0 SSE 37 48 20 26 1013.1 1013.0 0.2
30/05:00pm 24.1 22.2 21.4 85 1.8 SSE 33 46 18 25 1012.9 1012.8 0.2
30/04:30pm 24.5 22.5 21.2 82 2.2 SSE 33 48 18 26 1012.7 1012.6 0.2
30/04:00pm 25.2 22.5 21.3 79 2.6 SSE 37 50 20 27 1012.6 1012.5 0.2
30/03:30pm 24.9 21.9 21.4 81 2.3 SSE 39 48 21 26 1012.7 1012.6 0.2
30/03:00pm 24.7 22.6 21.0 80 2.4 SSE 33 46 18 25 1012.7 1012.6 0.2
30/02:30pm 24.9 22.4 21.6 82 2.2 SSE 37 48 20 26 1012.8 1012.7 0.2
30/02:00pm 25.7 22.1 20.9 75 3.2 SE 41 54 22 29 1012.8 1012.7 0.2
30/01:30pm 24.8 22.4 21.1 80 2.4 SE 35 54 19 29 1013.3 1013.2 0.2
30/01:26pm 25.0 22.7 21.3 80 2.4 SE 35 54 19 29 1013.3 1013.2 0.2
30/01:00pm 25.5 22.5 20.7 75 3.1 SE 37 54 20 29 1013.7 1013.6 0.2
30/12:30pm 26.4 23.3 21.2 73 3.4 SE 39 54 21 29 1014.0 1013.9 0.2
30/12:00pm 25.9 22.6 20.9 74 3.3 SE 39 54 21 29 1014.2 1014.1 0.2
30/11:30am 26.4 23.4 21.4 74 3.3 SE 39 54 21 29 1014.5 1014.4 0.2
30/11:00am 25.5 23.0 21.6 79 2.6 SE 37 50 20 27 1014.9 1014.8 0.0
30/10:30am 25.7 22.4 20.9 75 3.2 SE 39 50 21 27 1015.1 1015.0 0.0
30/10:11am 25.6 23.4 21.5 78 2.7 SE 35 54 19 29 1015.2 1015.1 0.0
30/10:00am 25.9 23.5 21.1 75 3.2 SE 35 48 19 26 1015.2 1015.1 0.0
30/09:40am 25.3 23.2 21.6 80 2.5 SE 35 54 19 29 1015.2 1015.1 0.0
30/09:30am 25.1 23.6 22.0 83 2.1 SE 33 50 18 27 1015.2 1015.1 0.0
30/09:00am 23.9 22.1 22.2 90 1.1 SE 35 50 19 27 1015.1 1015.0 1.0
30/08:31am 24.5 23.3 22.2 87 1.5 SE 32 50 17 27 1014.7 1014.6 1.0
30/08:30am 24.6 23.3 22.5 88 1.4 SE 33 50 18 27 1014.7 1014.6 1.0
30/08:26am 24.4 22.5 22.1 87 1.5 SE 35 54 19 29 1014.7 1014.6 1.0
30/08:00am 24.0 22.5 21.7 87 1.5 SE 32 44 17 24 1014.4 1014.3 1.0
30/07:35am 23.1 21.6 21.7 92 0.9 SE 32 50 17 27 1014.1 1014.0 1.0
30/07:30am 23.6 22.7 22.8 95 0.5 SSE 32 41 17 22 1014.1 1014.0 1.0
30/07:00am 23.3 21.5 22.3 94 0.7 SSE 35 46 19 25 1013.7 1013.6 0.8
30/06:30am 23.2 21.8 22.2 94 0.7 SSE 33 43 18 23 1013.5 1013.4 0.8
30/06:00am 23.2 21.8 22.2 94 0.7 SSE 33 43 18 23 1013.3 1013.2 0.8
30/05:40am 22.8 21.2 21.8 94 0.7 SSE 33 54 18 29 1013.2 1013.1 0.8
30/05:30am 23.1 21.3 22.3 95 0.5 SSE 35 46 19 25 1013.1 1013.0 0.8
30/05:00am 23.1 21.8 22.1 94 0.7 SSE 32 43 17 23 1012.8 1012.7 0.2
30/04:30am 23.3 21.3 21.9 92 0.9 SSE 35 46 19 25 1012.8 1012.7 0.0
30/04:00am 23.1 21.5 21.5 91 1.1 SSE 32 43 17 23 1012.8 1012.7 0.0
30/03:30am 22.7 20.4 21.2 91 1.0 SSE 35 44 19 24 1013.1 1013.0 0.0
30/03:00am 22.5 20.3 20.8 90 1.1 SSE 33 44 18 24 1013.2 1013.1 0.0
30/02:30am 23.2 20.5 20.5 85 1.8 SSE 35 46 19 25 1013.3 1013.2 0.0
30/02:00am 22.9 19.7 20.2 85 1.7 SSE 37 54 20 29 1013.6 1013.5 0.0
30/01:30am 22.5 20.1 20.4 88 1.4 SSE 33 46 18 25 1014.0 1013.9 0.0
30/01:00am 23.2 20.3 20.0 82 2.1 SSE 35 50 19 27 1014.4 1014.3 0.0
30/12:30am 23.1 19.8 20.1 83 1.9 SSE 37 50 20 27 1014.6 1014.5 0.0
30/12:00am 23.2 20.6 20.0 82 2.1 SSE 33 44 18 24 1015.0 1014.9 0.0
 
Date/Time
EST
Temp
°C
App
Temp
°C
Dew
Point
°C
Rel
Hum
%
Delta-T
°C
Wind Press
QNH
hPa
Press
MSL
hPa
Rain since
9am
mm
Dir  Spd
km/h
Gust
km/h
Spd
kts
Gust
kts
29/11:30pm 23.3 20.3 19.9 81 2.2 SSE 35 50 19 27 1015.4 1015.3 0.0
29/11:00pm 23.3 20.6 19.7 80 2.3 SSE 33 48 18 26 1015.5 1015.4 0.0
29/10:30pm 23.4 20.0 19.8 80 2.3 SSE 37 50 20 27 1015.7 1015.6 0.0
29/10:00pm 23.5 19.7 19.8 80 2.4 SSE 39 52 21 28 1015.8 1015.7 0.0
29/09:30pm 23.4 19.5 19.5 79 2.5 SSE 39 54 21 29 1015.7 1015.6 0.0
29/09:00pm 23.3 19.8 19.7 80 2.3 SSE 37 52 20 28 1015.6 1015.5 0.0
29/08:47pm 23.3 19.4 19.5 79 2.4 SSE 39 61 21 33 1015.6 1015.5 0.0
29/08:30pm 23.2 19.2 19.4 79 2.4 SSE 39 54 21 29 1015.5 1015.4 0.0
29/08:00pm 23.2 18.8 19.4 79 2.4 SSE 41 54 22 29 1015.3 1015.2 0.0
29/07:30pm 23.0 18.2 19.2 79 2.4 SSE 43 54 23 29 1015.0 1014.9 0.0
29/07:00pm 23.0 18.4 19.6 81 2.2 SSE 43 59 23 32 1014.7 1014.6 0.0
29/06:37pm 22.8 18.7 19.2 80 2.3 SSE 39 57 21 31 1014.4 1014.3 0.0
29/06:30pm 22.9 17.8 19.1 79 2.4 SSE 44 57 24 31 1014.3 1014.2 0.0
29/06:00pm 22.8 17.9 19.0 79 2.4 SSE 43 61 23 33 1014.0 1013.9 0.0
29/05:30pm 22.9 18.0 19.1 79 2.4 SSE 43 61 23 33 1013.8 1013.7 0.0
29/05:28pm 22.7 17.7 18.9 79 2.4 SSE 43 61 23 33 1013.8 1013.7 0.0
29/05:00pm 22.8 17.9 19.0 79 2.4 SSE 43 57 23 31 1013.6 1013.5 0.0
29/04:41pm 22.9 18.4 19.1 79 2.4 SSE 41 59 22 32 1013.7 1013.6 0.0
29/04:30pm 22.8 17.6 18.8 78 2.5 SSE 44 56 24 30 1013.7 1013.6 0.0
29/04:00pm 22.7 17.5 18.7 78 2.5 SSE 44 63 24 34 1013.6 1013.5 0.0
29/03:56pm 22.8 17.6 18.8 78 2.5 SSE 44 63 24 34 1013.6 1013.5 0.0
29/03:30pm 22.7 17.6 18.7 78 2.5 SSE 43 56 23 30 1013.6 1013.5 0.0
29/03:09pm 22.8 17.7 18.6 77 2.6 SSE 43 61 23 33 1013.6 1013.5 0.0
29/03:00pm 22.8 17.6 18.8 78 2.5 SSE 44 59 24 32 1013.6 1013.5 0.0
29/02:30pm 23.0 17.5 19.0 78 2.5 SSE 46 59 25 32 1013.7 1013.6 0.0
29/02:00pm 23.2 18.1 18.7 76 2.8 SSE 43 57 23 31 1013.9 1013.8 0.0
29/01:30pm 23.4 18.2 18.3 73 3.2 SSE 43 59 23 32 1014.3 1014.2 0.0
29/01:07pm 23.6 18.5 18.7 74 3.1 SSE 43 61 23 33 1014.6 1014.5 0.0
29/01:00pm 23.5 18.5 18.8 75 3.0 SSE 43 57 23 31 1014.7 1014.6 0.0
29/12:52pm 23.6 18.7 19.1 76 2.9 SSE 43 61 23 33 1014.8 1014.7 0.0
29/12:30pm 23.7 19.2 19.0 75 3.0 SSE 41 57 22 31 1015.2 1015.1 0.0
29/12:04pm 24.1 18.6 18.1 69 3.8 SSE 44 63 24 34 1015.4 1015.3 0.0
29/12:00pm 24.2 19.3 18.2 69 3.8 SSE 41 57 22 31 1015.4 1015.3 0.0
29/11:46am 24.1 18.9 18.3 70 3.7 SSE 43 61 23 33 1015.6 1015.5 0.0
29/11:30am 24.1 18.7 18.3 70 3.7 SSE 44 59 24 32 1015.9 1015.8 0.0
29/11:00am 24.4 19.2 18.3 69 3.8 SSE 43 57 23 31 1016.2 1016.1 0.0
29/10:30am 24.2 19.1 18.6 71 3.5 SSE 43 59 23 32 1016.4 1016.3 0.0
29/10:00am 24.3 19.3 18.9 72 3.4 SE 43 61 23 33 1016.4 1016.3 0.0
29/09:36am 23.9 18.7 18.3 71 3.5 SSE 43 63 23 34 1016.2 1016.1 0.0
29/09:30am 24.0 18.9 18.6 72 3.4 SE 43 57 23 31 1016.2 1016.1 0.0
29/09:16am 23.6 18.9 18.7 74 3.1 SE 41 59 22 32 1016.2 1016.1 0.0
29/09:00am 23.9 18.8 18.5 72 3.4 SSE 43 57 23 31 1016.1 1016.0 0.0
29/08:30am 23.9 18.7 18.3 71 3.5 SE 43 56 23 30 1016.0 1015.9 0.0
29/08:00am 23.9 18.5 17.9 69 3.8 SSE 43 61 23 33 1015.7 1015.6 0.0
29/07:41am 23.8 18.7 17.8 69 3.7 SSE 41 59 22 32 1015.7 1015.6 0.0
29/07:30am 23.9 19.0 18.1 70 3.6 SSE 41 54 22 29 1015.6 1015.5 0.0
29/07:00am 23.8 18.7 17.8 69 3.7 SSE 41 54 22 29 1015.3 1015.2 0.0
29/06:30am 23.9 18.8 18.5 72 3.4 SSE 43 61 23 33 1014.9 1014.8 0.0
29/06:28am 23.9 19.1 18.5 72 3.4 SSE 41 61 22 33 1014.8 1014.7 0.0
29/06:00am 24.0 18.9 18.6 72 3.4 SSE 43 56 23 30 1014.6 1014.5 0.0
29/05:30am 24.0 18.9 18.6 72 3.4 SSE 43 59 23 32 1014.4 1014.3 0.0
29/05:00am 23.9 19.1 18.5 72 3.4 SSE 41 59 22 32 1014.5 1014.4 0.0
29/04:56am 23.9 19.1 18.5 72 3.4 SSE 41 59 22 32 1014.4 1014.3 0.0
29/04:30am 23.9 18.8 18.5 72 3.4 SSE 43 57 23 31 1014.3 1014.2 0.0
29/04:18am 23.9 19.7 18.8 73 3.2 SSE 39 57 21 31 1014.2 1014.1 0.0
29/04:00am 24.0 18.9 18.6 72 3.4 SSE 43 56 23 30 1014.2 1014.1 0.0
29/03:30am 24.0 18.6 18.4 71 3.5 SSE 44 56 24 30 1014.3 1014.2 0.0
29/03:03am 24.1 19.8 18.7 72 3.4 SE 39 57 21 31 1014.3 1014.2 0.0
29/03:00am 24.2 19.1 18.6 71 3.5 SE 43 57 23 31 1014.3 1014.2 0.0
29/02:47am 24.2 19.8 18.4 70 3.7 SE 39 59 21 32 1014.4 1014.3 0.0
29/02:30am 24.3 19.7 18.0 68 4.0 SE 39 54 21 29 1014.5 1014.4 0.0
29/02:09am 24.3 20.3 18.5 70 3.7 SE 37 56 20 30 1014.8 1014.7 0.0
29/02:00am 24.4 19.7 18.6 70 3.7 SE 41 56 22 30 1014.9 1014.8 0.0
29/01:33am 24.3 19.5 18.5 70 3.7 SE 41 59 22 32 1015.1 1015.0 0.0
29/01:30am 24.5 19.3 18.4 69 3.9 SE 43 59 23 32 1015.1 1015.0 0.0
29/01:25am 24.4 19.4 17.9 67 4.1 SE 41 59 22 32 1015.1 1015.0 0.0
29/01:00am 23.7 21.2 20.2 81 2.3 SSE 33 44 18 24 1015.5 1015.4 0.0
29/12:30am 24.0 20.0 19.3 75 3.0 SSE 39 50 21 27 1015.7 1015.6 0.0
29/12:00am 24.3 19.8 18.2 68 3.8 SSE 39 54 21 29 1015.7 1015.6 0.0
 
Date/Time
EST
Temp
°C
App
Temp
°C
Dew
Point
°C
Rel
Hum
%
Delta-T
°C
Wind Press
QNH
hPa
Press
MSL
hPa
Rain since
9am
mm
Dir  Spd
km/h
Gust
km/h
Spd
kts
Gust
kts
28/11:38pm 24.4 19.5 18.1 68 4.0 SSE 41 59 22 32 1015.9 1015.8 0.0
28/11:30pm 24.4 19.3 18.6 70 3.7 SSE 43 54 23 29 1015.9 1015.8 0.0
28/11:00pm 24.3 19.2 17.8 67 4.1 SE 41 56 22 30 1016.5 1016.4 0.0
28/10:30pm 24.2 18.9 18.2 69 3.8 SSE 43 56 23 30 1016.8 1016.7 0.0
28/10:00pm 24.1 18.5 17.8 68 3.9 SSE 44 54 24 29 1017.0 1016.9 0.0
28/09:30pm 24.0 17.9 17.7 68 3.9 SE 46 59 25 32 1017.1 1017.0 0.0
28/09:02pm 23.8 18.4 17.8 69 3.7 SE 43 61 23 33 1017.0 1016.9 0.0
28/09:00pm 23.8 18.4 18.0 70 3.6 SE 43 57 23 31 1017.0 1016.9 0.0
28/08:34pm 23.9 18.0 18.1 70 3.6 SSE 46 65 25 35 1016.8 1016.7 0.0
28/08:30pm 23.8 18.4 18.0 70 3.6 SSE 43 57 23 31 1016.8 1016.7 0.0
28/08:11pm 23.9 18.4 18.1 70 3.6 SSE 44 63 24 34 1016.5 1016.4 0.0
28/08:00pm 23.9 18.0 18.1 70 3.6 SSE 46 59 25 32 1016.4 1016.3 0.0
28/07:30pm 24.1 18.0 17.6 67 4.1 SE 46 63 25 34 1016.1 1016.0 0.0
28/07:00pm 24.2 18.7 18.2 69 3.8 SE 44 61 24 33 1015.7 1015.6 0.0
28/06:32pm 24.3 18.7 18.7 71 3.6 SE 46 69 25 37 1015.5 1015.4 0.0
28/06:30pm 24.2 18.5 18.6 71 3.5 SE 46 61 25 33 1015.4 1015.3 0.0
28/06:03pm 24.0 18.9 19.1 74 3.1 SSE 44 63 24 34 1015.0 1014.9 0.0
28/06:00pm 24.0 18.6 19.1 74 3.1 SSE 46 63 25 34 1015.0 1014.9 0.0
28/05:30pm 24.1 18.6 19.0 73 3.2 SSE 46 69 25 37 1014.8 1014.7 0.0
28/05:11pm 24.4 18.9 19.0 72 3.4 SSE 46 65 25 35 1014.5 1014.4 0.0
28/05:00pm 24.4 18.6 19.2 73 3.3 SSE 48 65 26 35 1014.5 1014.4 0.0
28/04:30pm 24.8 20.0 19.6 73 3.3 SSE 44 69 24 37 1014.4 1014.3 0.0
28/04:00pm 24.5 19.0 19.8 75 3.0 SSE 48 59 26 32 1014.2 1014.1 0.0
28/03:37pm 24.9 20.0 19.5 72 3.5 SSE 44 63 24 34 1014.0 1013.9 0.0
28/03:30pm 25.2 19.8 19.1 69 3.9 SE 46 63 25 34 1014.0 1013.9 0.0
28/03:00pm 26.2 20.7 18.9 64 4.7 SE 46 63 25 34 1014.2 1014.1 0.0
28/02:36pm 26.6 21.3 18.5 61 5.2 SE 44 63 24 34 1014.4 1014.3 0.0
28/02:30pm 26.7 21.3 19.3 64 4.8 SE 46 61 25 33 1014.4 1014.3 0.0
28/02:00pm 26.5 20.5 18.6 62 5.0 SE 48 65 26 35 1014.5 1014.4 0.0
28/01:47pm 27.1 22.6 20.0 65 4.6 SE 43 61 23 33 1014.7 1014.6 0.0
28/01:30pm 26.8 21.4 19.2 63 4.9 SE 46 61 25 33 1015.0 1014.9 0.0
28/01:00pm 27.0 21.7 19.4 63 4.9 SE 46 61 25 33 1015.3 1015.2 0.0
28/12:32pm 26.4 21.5 19.5 66 4.5 SE 44 65 24 35 1015.6 1015.5 0.0
28/12:30pm 26.4 21.8 20.0 68 4.2 SE 44 57 24 31 1015.6 1015.5 0.0
28/12:08pm 26.8 22.1 19.9 66 4.5 SSE 44 63 24 34 1015.8 1015.7 0.0
28/12:00pm 26.6 21.3 19.5 65 4.6 SSE 46 63 25 34 1015.9 1015.8 0.0
28/11:32am 26.7 21.5 19.6 65 4.6 SE 46 65 25 35 1016.1 1016.0 0.0

Other Formats:

Comma delimited format used in spreadsheet applications
http://www.bom.gov.au/fwo/IDQ60801/IDQ60801.94188.axf

JavaScript Object Notation format (JSON) in row-major order
http://www.bom.gov.au/fwo/IDQ60801/IDQ60801.94188.json